createdAt,value
2023-08-27T00:02:17.365Z,23.86
2023-08-27T00:05:16.306Z,23.95
2023-08-27T00:08:14.349Z,23.93
2023-08-27T00:11:12.295Z,23.82
2023-08-27T00:14:10.337Z,23.66
2023-08-27T00:17:10.305Z,23.73
2023-08-27T00:20:10.154Z,23.78
2023-08-27T00:23:08.359Z,23.74
2023-08-27T00:26:05.343Z,23.70
2023-08-27T00:29:03.300Z,23.77
2023-08-27T00:32:01.990Z,23.70
2023-08-27T00:35:03.336Z,23.66
2023-08-27T00:38:01.443Z,23.64
2023-08-27T00:40:59.287Z,23.56
2023-08-27T00:43:56.385Z,23.54
2023-08-27T00:46:55.346Z,23.52
2023-08-27T00:49:53.490Z,23.55
2023-08-27T00:52:51.331Z,23.50
2023-08-27T00:55:51.531Z,23.41
2023-08-27T00:58:49.316Z,23.34
2023-08-27T01:01:47.433Z,23.38
2023-08-27T01:04:45.331Z,23.29
2023-08-27T01:08:32.374Z,23.32
2023-08-27T01:11:39.352Z,23.35
2023-08-27T01:14:50.336Z,23.34
2023-08-27T01:17:55.383Z,23.32
2023-08-27T01:20:52.456Z,23.30
2023-08-27T01:23:50.378Z,23.19
2023-08-27T01:27:04.447Z,23.16
2023-08-27T01:30:11.372Z,23.17
2023-08-27T01:33:22.466Z,23.18
2023-08-27T01:36:20.339Z,23.19
2023-08-27T01:39:20.432Z,23.09
2023-08-27T01:42:18.361Z,23.12
2023-08-27T01:45:17.917Z,23.11
2023-08-27T01:48:16.421Z,23.17
2023-08-27T01:51:14.525Z,23.04
2023-08-27T01:54:12.435Z,23.03
2023-08-27T01:57:10.533Z,22.86
2023-08-27T02:00:08.427Z,22.77
2023-08-27T02:03:21.425Z,22.68
2023-08-27T02:06:25.470Z,22.79
2023-08-27T02:09:22.472Z,22.77
2023-08-27T02:12:20.427Z,22.77
2023-08-27T02:15:18.486Z,22.73
2023-08-27T02:18:16.438Z,22.77
2023-08-27T02:21:13.474Z,22.67
2023-08-27T02:24:11.430Z,22.60
2023-08-27T02:27:09.461Z,22.61
2023-08-27T02:30:07.471Z,22.57
2023-08-27T02:33:05.473Z,22.50
2023-08-27T02:36:03.476Z,22.57
2023-08-27T02:39:01.534Z,22.52
2023-08-27T02:41:59.434Z,22.47
2023-08-27T02:44:57.481Z,22.41
2023-08-27T02:47:55.480Z,22.33
2023-08-27T02:50:52.468Z,22.26
2023-08-27T02:53:50.516Z,22.15
2023-08-27T02:56:47.501Z,22.06
2023-08-27T02:59:45.453Z,22.05
2023-08-27T03:02:43.518Z,22.05
2023-08-27T03:05:48.556Z,22.07
2023-08-27T03:08:46.595Z,22.14
2023-08-27T03:11:43.485Z,22.02
2023-08-27T03:14:34.658Z,21.85
2023-08-27T03:17:38.472Z,21.79
2023-08-27T03:20:30.252Z,21.70
2023-08-27T03:23:37.469Z,21.58
2023-08-27T03:26:28.749Z,21.65
2023-08-27T03:29:34.477Z,21.66
2023-08-27T03:32:25.724Z,21.57
2023-08-27T03:35:30.506Z,21.50
2023-08-27T03:38:21.727Z,21.63
2023-08-27T03:41:26.481Z,21.50
2023-08-27T03:44:17.801Z,21.49
2023-08-27T03:47:22.548Z,21.48
2023-08-27T03:50:13.797Z,21.43
2023-08-27T03:53:19.472Z,21.45
2023-08-27T03:56:10.828Z,21.48
2023-08-27T03:59:15.487Z,21.41
2023-08-27T04:02:08.305Z,21.47
2023-08-27T04:05:13.534Z,21.50
2023-08-27T04:08:04.918Z,21.54
2023-08-27T04:11:09.530Z,21.32
2023-08-27T04:14:00.748Z,21.06
2023-08-27T04:17:05.510Z,21.18
2023-08-27T04:19:56.749Z,21.06
2023-08-27T04:23:00.780Z,21.12
2023-08-27T04:25:52.628Z,21.18
2023-08-27T04:28:57.505Z,21.21
2023-08-27T04:32:08.504Z,21.32
2023-08-27T04:35:12.478Z,21.43
2023-08-27T04:38:10.800Z,21.58
2023-08-27T04:41:10.500Z,21.58
2023-08-27T04:44:07.606Z,21.83
2023-08-27T04:47:07.514Z,22.01
2023-08-27T04:50:05.550Z,22.13
2023-08-27T04:53:03.503Z,22.08
2023-08-27T04:56:01.750Z,22.23
2023-08-27T04:58:59.544Z,22.37
2023-08-27T05:01:59.967Z,22.55
2023-08-27T05:04:57.531Z,22.43
2023-08-27T05:07:55.588Z,22.46
2023-08-27T05:10:53.591Z,22.46
2023-08-27T05:13:50.588Z,22.60
2023-08-27T05:16:48.562Z,22.65
2023-08-27T05:19:46.694Z,22.71
2023-08-27T05:22:44.618Z,22.74
2023-08-27T05:25:42.931Z,23.02
2023-08-27T05:28:42.572Z,23.21
2023-08-27T05:31:40.778Z,23.34
2023-08-27T05:34:38.585Z,23.47
2023-08-27T05:37:36.668Z,23.73
2023-08-27T05:40:34.590Z,24.14
2023-08-27T05:43:31.610Z,24.43
2023-08-27T05:46:29.606Z,24.78
2023-08-27T05:49:26.651Z,25.01
2023-08-27T05:52:24.612Z,25.50
2023-08-27T05:55:22.627Z,25.90
2023-08-27T05:58:20.596Z,26.55
2023-08-27T06:01:18.667Z,27.02
2023-08-27T06:04:16.554Z,27.32
2023-08-27T06:07:13.672Z,27.62
2023-08-27T06:10:11.592Z,27.98
2023-08-27T06:13:22.584Z,28.31
2023-08-27T06:16:26.624Z,28.65
2023-08-27T06:19:28.639Z,28.87
2023-08-27T06:22:34.594Z,29.10
2023-08-27T06:25:32.686Z,29.15
2023-08-27T06:28:30.594Z,29.20
2023-08-27T06:31:28.072Z,29.03
2023-08-27T06:34:32.677Z,28.88
2023-08-27T06:37:43.612Z,28.74
2023-08-27T06:40:48.629Z,28.59
2023-08-27T06:43:45.701Z,28.41
2023-08-27T06:46:43.616Z,28.16
2023-08-27T06:49:41.749Z,28.28
2023-08-27T06:52:39.648Z,28.31
2023-08-27T06:55:37.729Z,28.31
2023-08-27T06:58:36.680Z,28.23
2023-08-27T07:01:34.725Z,28.33
2023-08-27T07:04:32.667Z,28.57
2023-08-27T07:07:30.751Z,28.64
2023-08-27T07:10:28.678Z,28.75
2023-08-27T07:13:25.723Z,28.78
2023-08-27T07:16:23.681Z,28.89
2023-08-27T07:19:21.745Z,29.07
2023-08-27T07:22:19.707Z,29.34
2023-08-27T07:25:19.515Z,29.55
2023-08-27T07:28:17.675Z,29.57
2023-08-27T07:31:15.796Z,29.74
2023-08-27T07:34:19.694Z,29.98
2023-08-27T07:37:10.728Z,30.13
2023-08-27T07:40:16.697Z,30.31
2023-08-27T07:43:07.841Z,30.37
2023-08-27T07:46:11.827Z,30.57
2023-08-27T07:49:02.751Z,30.83
2023-08-27T07:52:07.713Z,30.83
2023-08-27T07:54:58.793Z,31.09
2023-08-27T07:58:03.853Z,31.20
2023-08-27T08:01:05.923Z,31.35
2023-08-27T08:04:03.794Z,31.43
2023-08-27T08:06:55.049Z,31.72
2023-08-27T08:09:59.710Z,32.01
2023-08-27T08:12:52.761Z,32.15
2023-08-27T08:16:00.747Z,32.34
2023-08-27T08:18:52.043Z,32.51
2023-08-27T08:21:55.714Z,32.49
2023-08-27T08:24:47.335Z,32.48
2023-08-27T08:27:51.698Z,32.78
2023-08-27T08:30:49.314Z,32.75
2023-08-27T08:33:53.757Z,33.30
2023-08-27T08:36:45.035Z,33.70
2023-08-27T08:39:49.744Z,34.22
2023-08-27T08:42:49.292Z,34.36
2023-08-27T08:46:18.875Z,37.05
2023-08-27T08:49:15.228Z,38.76
2023-08-27T08:52:22.750Z,40.25
2023-08-27T08:55:15.901Z,42.12
2023-08-27T08:58:25.750Z,43.07
2023-08-27T09:01:18.450Z,44.26
2023-08-27T09:04:29.742Z,43.56
2023-08-27T09:07:29.085Z,44.73
2023-08-27T09:10:33.807Z,44.38
2023-08-27T09:13:25.120Z,45.61
2023-08-27T09:16:29.829Z,46.66
2023-08-27T09:19:21.134Z,48.14
2023-08-27T09:22:24.853Z,47.79
2023-08-27T09:25:16.057Z,46.67
2023-08-27T09:28:21.863Z,47.51
2023-08-27T09:31:52.453Z,48.30
2023-08-27T09:34:57.808Z,48.00
2023-08-27T09:37:49.095Z,48.59
2023-08-27T09:40:53.781Z,50.09
2023-08-27T09:43:55.065Z,49.56
2023-08-27T09:47:00.801Z,51.18
2023-08-27T09:49:52.110Z,51.36
2023-08-27T09:52:56.837Z,50.47
2023-08-27T09:55:51.116Z,50.02
2023-08-27T09:58:55.867Z,48.50
2023-08-27T10:01:48.824Z,49.04
2023-08-27T10:05:04.860Z,48.67
2023-08-27T10:08:03.647Z,49.56
2023-08-27T10:11:24.878Z,51.33
2023-08-27T10:14:18.955Z,51.01
2023-08-27T10:17:25.000Z,51.00
2023-08-27T10:20:17.156Z,52.12
2023-08-27T10:23:23.836Z,52.30
2023-08-27T10:26:15.608Z,53.29
2023-08-27T10:29:20.848Z,52.63
2023-08-27T10:32:12.135Z,51.30
2023-08-27T10:35:16.881Z,52.19
2023-08-27T10:38:09.198Z,53.22
2023-08-27T10:41:14.930Z,54.61
2023-08-27T10:44:10.033Z,55.30
2023-08-27T10:47:24.943Z,53.99
2023-08-27T10:50:21.787Z,52.87
2023-08-27T10:53:26.934Z,54.69
2023-08-27T10:56:37.418Z,54.72
2023-08-27T10:59:42.915Z,53.80
2023-08-27T11:02:59.212Z,52.93
2023-08-27T11:06:26.895Z,55.83
2023-08-27T11:09:23.504Z,55.56
2023-08-27T11:12:40.910Z,55.15
2023-08-27T11:15:32.728Z,55.50
2023-08-27T11:18:56.923Z,55.45
2023-08-27T11:22:06.647Z,55.82
2023-08-27T11:25:10.911Z,55.83
2023-08-27T11:28:03.394Z,54.12
2023-08-27T11:31:08.952Z,55.26
2023-08-27T11:34:01.267Z,54.84
2023-08-27T11:37:04.962Z,56.28
2023-08-27T11:39:56.180Z,57.16
2023-08-27T11:43:07.985Z,54.25
2023-08-27T11:45:59.317Z,53.60
2023-08-27T11:49:03.941Z,55.81
2023-08-27T11:51:59.645Z,54.88
2023-08-27T11:55:05.007Z,55.12
2023-08-27T11:57:56.335Z,54.94
2023-08-27T12:01:07.996Z,54.62
2023-08-27T12:03:59.384Z,56.17
2023-08-27T12:07:07.986Z,56.51
2023-08-27T12:10:02.087Z,55.27
2023-08-27T12:13:05.974Z,56.95
2023-08-27T12:15:57.294Z,54.89
2023-08-27T12:19:01.989Z,52.28
2023-08-27T12:21:54.449Z,53.55
2023-08-27T12:24:58.992Z,54.79
2023-08-27T12:27:49.286Z,54.79
2023-08-27T12:31:06.106Z,54.64
2023-08-27T12:34:04.648Z,55.51
2023-08-27T12:37:09.062Z,55.22
2023-08-27T12:40:00.457Z,56.31
2023-08-27T12:43:06.041Z,55.89
2023-08-27T12:45:57.389Z,56.35
2023-08-27T12:49:02.011Z,56.94
2023-08-27T12:51:53.898Z,56.24
2023-08-27T12:54:58.064Z,55.70
2023-08-27T12:57:49.290Z,54.01
2023-08-27T13:00:54.071Z,55.46
2023-08-27T13:03:45.418Z,54.98
2023-08-27T13:06:51.051Z,55.46
2023-08-27T13:09:42.323Z,55.34
2023-08-27T13:12:46.109Z,54.74
2023-08-27T13:15:37.288Z,55.95
2023-08-27T13:18:42.075Z,56.90
2023-08-27T13:21:33.363Z,55.60
2023-08-27T13:24:38.072Z,54.43
2023-08-27T13:27:30.661Z,53.91
2023-08-27T13:30:35.088Z,55.07
2023-08-27T13:33:26.363Z,53.45
2023-08-27T13:36:37.090Z,53.58
2023-08-27T13:39:35.304Z,52.75
2023-08-27T13:42:39.150Z,53.10
2023-08-27T13:45:30.326Z,53.22
2023-08-27T13:48:35.093Z,53.96
2023-08-27T13:51:26.477Z,53.31
2023-08-27T13:54:31.084Z,52.21
2023-08-27T13:57:22.408Z,51.31
2023-08-27T14:00:27.081Z,51.27
2023-08-27T14:03:18.466Z,51.99
2023-08-27T14:06:23.127Z,51.23
2023-08-27T14:09:14.453Z,52.97
2023-08-27T14:12:19.165Z,51.63
2023-08-27T14:15:30.113Z,52.28
2023-08-27T14:18:34.124Z,51.37
2023-08-27T14:21:45.122Z,50.52
2023-08-27T14:24:49.108Z,51.04
2023-08-27T14:27:46.395Z,49.12
2023-08-27T14:30:44.180Z,49.63
2023-08-27T14:33:41.214Z,49.56
2023-08-27T14:36:39.113Z,49.37
2023-08-27T14:39:37.896Z,48.15
2023-08-27T14:42:45.265Z,48.06
2023-08-27T14:45:36.167Z,47.86
2023-08-27T14:48:40.186Z,47.20
2023-08-27T14:51:31.184Z,47.53
2023-08-27T14:54:35.146Z,47.12
2023-08-27T14:57:33.269Z,47.48
2023-08-27T15:00:31.197Z,46.57
2023-08-27T15:03:22.564Z,45.66
2023-08-27T15:06:27.140Z,45.40
2023-08-27T15:09:18.404Z,45.46
2023-08-27T15:12:30.194Z,45.37
2023-08-27T15:15:23.214Z,45.18
2023-08-27T15:18:28.200Z,44.78
2023-08-27T15:21:19.580Z,44.51
2023-08-27T15:24:24.168Z,43.72
2023-08-27T15:27:15.495Z,43.34
2023-08-27T15:30:20.250Z,42.88
2023-08-27T15:33:11.450Z,42.56
2023-08-27T15:36:15.242Z,41.65
2023-08-27T15:39:06.905Z,40.72
2023-08-27T15:42:11.194Z,39.77
2023-08-27T15:45:01.595Z,39.07
2023-08-27T15:48:05.609Z,38.96
2023-08-27T15:50:56.504Z,38.68
2023-08-27T15:54:01.222Z,38.28
2023-08-27T15:56:52.645Z,38.11
2023-08-27T15:59:57.229Z,37.96
2023-08-27T16:02:48.530Z,37.79
2023-08-27T16:05:53.266Z,37.72
2023-08-27T16:08:45.010Z,37.45
2023-08-27T16:11:56.288Z,37.21
2023-08-27T16:14:53.532Z,37.20
2023-08-27T16:17:58.293Z,37.03
2023-08-27T16:20:49.617Z,36.84
2023-08-27T16:23:53.334Z,36.80
2023-08-27T16:26:44.480Z,36.72
2023-08-27T16:29:49.250Z,36.41
2023-08-27T16:32:39.619Z,36.22
2023-08-27T16:35:44.249Z,36.11
2023-08-27T16:38:35.548Z,36.16
2023-08-27T16:41:40.319Z,36.01
2023-08-27T16:44:31.531Z,35.81
2023-08-27T16:47:35.300Z,35.68
2023-08-27T16:50:26.561Z,35.51
2023-08-27T16:53:31.299Z,35.31
2023-08-27T16:56:42.266Z,35.17
2023-08-27T16:59:46.303Z,35.01
2023-08-27T17:02:44.473Z,34.69
2023-08-27T17:05:42.313Z,34.38
2023-08-27T17:08:39.330Z,34.14
2023-08-27T17:11:37.334Z,34.02
2023-08-27T17:14:34.360Z,33.91
2023-08-27T17:17:39.387Z,33.78
2023-08-27T17:20:30.399Z,33.57
2023-08-27T17:23:34.299Z,33.48
2023-08-27T17:26:25.484Z,33.37
2023-08-27T17:29:30.324Z,33.21
2023-08-27T17:32:21.505Z,33.12
2023-08-27T17:35:26.353Z,33.06
2023-08-27T17:38:17.369Z,32.97
2023-08-27T17:41:24.304Z,32.77
2023-08-27T17:44:22.427Z,32.33
2023-08-27T17:47:20.346Z,31.78
2023-08-27T17:50:13.745Z,31.45
2023-08-27T17:53:18.479Z,31.45
2023-08-27T17:56:09.691Z,31.42
2023-08-27T17:59:15.470Z,31.55
2023-08-27T18:02:06.695Z,31.43
2023-08-27T18:05:11.353Z,31.34
2023-08-27T18:08:03.188Z,31.29
2023-08-27T18:11:07.389Z,31.33
2023-08-27T18:13:58.613Z,31.16
2023-08-27T18:17:03.415Z,31.10
2023-08-27T18:19:54.612Z,31.02
2023-08-27T18:22:59.394Z,30.91
2023-08-27T18:25:50.587Z,30.76
2023-08-27T18:28:54.374Z,30.68
2023-08-27T18:31:46.239Z,30.69
2023-08-27T18:34:52.384Z,30.73
2023-08-27T18:37:43.732Z,30.59
2023-08-27T18:40:48.447Z,30.44
2023-08-27T18:43:39.743Z,30.30
2023-08-27T18:46:45.383Z,30.25
2023-08-27T18:49:36.816Z,30.14
2023-08-27T18:52:40.404Z,30.14
2023-08-27T18:55:31.806Z,29.91
2023-08-27T18:58:36.474Z,29.68
2023-08-27T19:01:28.208Z,29.54
2023-08-27T19:04:34.412Z,29.32
2023-08-27T19:07:24.633Z,29.18
2023-08-27T19:10:28.635Z,29.17
2023-08-27T19:13:39.419Z,29.13
2023-08-27T19:16:44.462Z,28.99
2023-08-27T19:19:41.523Z,28.98
2023-08-27T19:22:39.869Z,28.93
2023-08-27T19:25:38.501Z,28.91
2023-08-27T19:28:36.506Z,28.70
2023-08-27T19:31:45.933Z,28.68
2023-08-27T19:34:45.330Z,28.75
2023-08-27T19:37:42.474Z,28.62
2023-08-27T19:40:40.438Z,28.49
2023-08-27T19:43:37.502Z,28.52
2023-08-27T19:46:35.488Z,28.46
2023-08-27T19:49:32.694Z,28.42
2023-08-27T19:52:30.514Z,28.34
2023-08-27T19:55:28.536Z,28.22
2023-08-27T19:58:26.486Z,28.13
2023-08-27T20:01:24.563Z,28.24
2023-08-27T20:04:22.480Z,28.07
2023-08-27T20:07:20.583Z,28.10
2023-08-27T20:10:18.522Z,28.13
2023-08-27T20:13:15.829Z,28.13
2023-08-27T20:16:13.549Z,28.13
2023-08-27T20:19:24.461Z,28.25
2023-08-27T20:22:28.507Z,28.12
2023-08-27T20:25:25.538Z,28.07
2023-08-27T20:28:25.550Z,28.09
2023-08-27T20:31:23.637Z,28.14
2023-08-27T20:34:21.528Z,28.07
2023-08-27T20:37:19.707Z,28.04
2023-08-27T20:40:18.550Z,28.05
2023-08-27T20:43:15.680Z,27.95
2023-08-27T20:46:13.547Z,27.82
2023-08-27T20:49:10.610Z,27.76
2023-08-27T20:52:07.544Z,27.94
2023-08-27T20:55:19.486Z,27.87
2023-08-27T20:58:23.488Z,27.60
2023-08-27T21:01:20.702Z,27.67
2023-08-27T21:04:24.617Z,27.46
2023-08-27T21:07:15.608Z,27.45
2023-08-27T21:10:20.539Z,27.56
2023-08-27T21:13:11.708Z,27.93
2023-08-27T21:16:16.615Z,28.06
2023-08-27T21:19:13.618Z,27.97
2023-08-27T21:22:11.596Z,28.12
2023-08-27T21:25:10.148Z,28.01
2023-08-27T21:28:08.609Z,27.96
2023-08-27T21:31:19.805Z,28.00
2023-08-27T21:34:23.606Z,27.90
2023-08-27T21:37:21.625Z,27.69
2023-08-27T21:40:19.600Z,27.69
2023-08-27T21:43:16.702Z,27.61
2023-08-27T21:46:14.618Z,27.80
2023-08-27T21:49:12.902Z,27.55
2023-08-27T21:52:16.598Z,27.48
2023-08-27T21:55:07.683Z,27.40
2023-08-27T21:58:12.656Z,27.47
2023-08-27T22:01:03.749Z,27.43
2023-08-27T22:04:07.786Z,27.62
2023-08-27T22:06:58.640Z,27.64
2023-08-27T22:10:02.631Z,27.86
2023-08-27T22:12:53.721Z,27.98
2023-08-27T22:15:58.587Z,28.11
2023-08-27T22:18:49.750Z,28.05
2023-08-27T22:21:54.625Z,27.97
2023-08-27T22:24:46.692Z,27.97
2023-08-27T22:27:50.626Z,27.96
2023-08-27T22:30:41.762Z,28.09
2023-08-27T22:33:52.655Z,28.12
2023-08-27T22:36:50.223Z,28.15
2023-08-27T22:40:01.675Z,28.16
2023-08-27T22:42:58.865Z,28.14
2023-08-27T22:46:02.871Z,28.14
2023-08-27T22:48:53.865Z,28.00
2023-08-27T22:51:57.634Z,28.03
2023-08-27T22:55:08.597Z,28.10
2023-08-27T22:58:12.654Z,28.20
2023-08-27T23:01:10.805Z,28.07
2023-08-27T23:04:08.667Z,28.16
2023-08-27T23:07:19.629Z,28.06
2023-08-27T23:10:24.701Z,27.89
2023-08-27T23:13:22.719Z,27.95
2023-08-27T23:16:20.870Z,27.96
2023-08-27T23:19:17.699Z,27.90
2023-08-27T23:22:15.696Z,27.87
2023-08-27T23:25:13.705Z,27.78
2023-08-27T23:28:17.747Z,27.86
2023-08-27T23:31:08.741Z,27.82
2023-08-27T23:34:12.702Z,27.73
2023-08-27T23:37:03.722Z,27.74
2023-08-27T23:40:07.685Z,27.77
2023-08-27T23:42:58.793Z,27.88
2023-08-27T23:46:02.690Z,27.82
2023-08-27T23:48:53.722Z,27.59
2023-08-27T23:51:57.694Z,27.55
2023-08-27T23:54:48.789Z,27.49
2023-08-27T23:57:52.741Z,27.46
